Time;durP1;ratioP1;P1;durP2;ratioP2;P2;SDS_P1;SDS_P2;PMS_P1;PMS_P2;Temp;Humidity;BMP_temperature;BMP_pressure;BME280_temperature;BME280_humidity;BME280_pressure;Samples;Min_cycle;Max_cycle;Signal;HPM_P1;HPM_P2
2022/08/09 00:00:36;;;;;;;11.80;8.25;;;29.40;97.60;;;;;;5095397;27;20106;-75
2022/08/09 00:03:04;;;;;;;12.40;8.70;;;29.40;97.60;;;;;;5083057;28;20043;-75
2022/08/09 00:05:31;;;;;;;11.65;7.68;;;29.40;97.60;;;;;;5056652;28;20052;-75
2022/08/09 00:07:59;;;;;;;10.80;7.80;;;29.40;97.40;;;;;;5073163;28;20044;-75
2022/08/09 00:10:30;;;;;;;10.90;8.73;;;29.40;97.40;;;;;;5074286;28;20032;-75
2022/08/09 00:12:58;;;;;;;11.13;8.20;;;29.40;97.40;;;;;;5069042;28;20218;-75
2022/08/09 00:15:26;;;;;;;12.15;8.80;;;29.40;97.40;;;;;;5055212;28;20563;-76
2022/08/09 00:17:53;;;;;;;13.95;10.55;;;29.40;97.50;;;;;;5052534;28;20441;-76
2022/08/09 00:20:21;;;;;;;11.45;9.25;;;29.40;97.50;;;;;;5072129;28;20422;-74
2022/08/09 00:22:48;;;;;;;13.05;8.85;;;29.40;97.70;;;;;;5069923;28;20048;-75
2022/08/09 00:25:16;;;;;;;12.13;9.23;;;29.40;97.60;;;;;;5075106;28;20036;-76
2022/08/09 00:27:44;;;;;;;15.05;9.32;;;29.40;97.70;;;;;;5082994;28;20120;-75
2022/08/09 00:30:13;;;;;;;14.68;9.38;;;29.30;97.70;;;;;;5079386;28;20044;-75
2022/08/09 00:32:41;;;;;;;12.27;9.10;;;29.30;97.80;;;;;;5064162;28;20090;-75
2022/08/09 00:35:09;;;;;;;12.18;10.30;;;29.40;97.80;;;;;;5095128;28;20052;-75
2022/08/09 00:37:36;;;;;;;13.05;9.43;;;29.30;97.80;;;;;;5092196;28;20039;-75
2022/08/09 00:40:05;;;;;;;13.60;9.27;;;29.40;97.80;;;;;;5092810;28;20052;-75
2022/08/09 00:42:33;;;;;;;12.32;9.43;;;29.30;97.80;;;;;;5091647;28;20417;-74
2022/08/09 00:45:03;;;;;;;13.60;10.30;;;29.30;97.90;;;;;;5094314;28;20139;-75
2022/08/09 00:47:31;;;;;;;14.25;9.85;;;29.30;98.00;;;;;;5093310;28;20040;-75
2022/08/09 00:49:58;;;;;;;16.30;9.90;;;29.30;98.00;;;;;;5092999;28;20428;-74
2022/08/09 00:52:28;;;;;;;14.38;10.38;;;29.20;98.00;;;;;;5091661;28;20040;-75
2022/08/09 00:54:59;;;;;;;17.35;10.77;;;29.20;98.00;;;;;;5073980;28;20051;-75
2022/08/09 00:57:29;;;;;;;14.65;10.38;;;29.30;98.00;;;;;;5107726;28;20039;-74
2022/08/09 00:59:58;;;;;;;12.60;9.23;;;29.20;98.10;;;;;;5090999;28;20063;-74
2022/08/09 01:02:29;;;;;;;13.85;9.20;;;29.20;98.10;;;;;;5090793;28;20048;-74
2022/08/09 01:05:11;;;;;;;10.02;8.60;;;29.20;98.10;;;;;;5092636;28;20126;-74
2022/08/09 01:07:57;;;;;;;15.10;9.98;;;29.20;98.20;;;;;;5075743;28;20052;-74
2022/08/09 01:11:02;;;;;;;13.40;10.25;;;29.10;98.20;;;;;;5076248;28;20071;-74
2022/08/09 01:14:03;;;;;;;11.32;9.32;;;29.10;98.30;;;;;;5075374;28;20083;-73
2022/08/09 01:16:38;;;;;;;12.85;10.20;;;29.10;98.40;;;;;;5084975;28;20386;-74
2022/08/09 01:19:16;;;;;;;14.23;10.52;;;29.10;98.40;;;;;;5092950;28;20093;-73
2022/08/09 01:21:51;;;;;;;12.30;9.98;;;29.10;98.40;;;;;;5092639;28;20101;-74
2022/08/09 01:24:30;;;;;;;13.20;10.30;;;29.10;98.30;;;;;;5093644;28;20051;-74
2022/08/09 01:27:08;;;;;;;14.10;9.80;;;29.10;98.20;;;;;;5092528;28;20512;-74
2022/08/09 01:29:59;;;;;;;14.52;10.00;;;29.10;98.40;;;;;;5092558;28;20054;-74
2022/08/09 01:32:36;;;;;;;14.27;9.50;;;29.00;98.20;;;;;;5092704;28;20051;-74
2022/08/09 01:35:25;;;;;;;12.85;9.55;;;29.10;98.20;;;;;;5092696;28;20036;-74
2022/08/09 01:37:57;;;;;;;13.80;10.38;;;29.00;98.00;;;;;;5126499;28;20040;-73
2022/08/09 01:40:28;;;;;;;14.38;10.50;;;29.10;98.00;;;;;;5109288;28;20041;-74
2022/08/09 01:42:58;;;;;;;13.48;10.13;;;29.10;97.80;;;;;;5075387;28;20394;-74
2022/08/09 01:45:27;;;;;;;11.57;9.07;;;29.00;97.80;;;;;;5092588;28;20048;-74
2022/08/09 01:47:59;;;;;;;13.52;9.45;;;29.00;97.70;;;;;;5092579;28;20078;-74
2022/08/09 01:50:28;;;;;;;12.48;9.82;;;29.00;97.70;;;;;;5095646;28;20043;-74
2022/08/09 01:52:58;;;;;;;13.02;10.25;;;29.00;97.60;;;;;;5097727;28;20544;-74
2022/08/09 01:55:28;;;;;;;12.85;10.35;;;29.00;97.60;;;;;;5095984;28;20044;-74
2022/08/09 01:57:57;;;;;;;13.02;10.02;;;29.00;97.60;;;;;;5096662;28;20455;-74
2022/08/09 02:00:26;;;;;;;14.43;9.50;;;29.00;97.40;;;;;;5080265;28;20090;-73
2022/08/09 02:02:54;;;;;;;12.43;9.35;;;29.00;97.40;;;;;;5097391;28;20591;-74
2022/08/09 02:05:23;;;;;;;11.82;9.48;;;29.00;97.30;;;;;;5096596;28;20138;-74
2022/08/09 02:07:59;;;;;;;15.63;9.65;;;29.00;97.30;;;;;;5096117;28;20040;-74
2022/08/09 02:10:31;;;;;;;12.32;9.68;;;28.90;97.30;;;;;;5096146;28;20052;-74
2022/08/09 02:13:04;;;;;;;12.70;9.15;;;28.90;97.40;;;;;;5096333;28;20052;-74
2022/08/09 02:15:34;;;;;;;12.23;9.32;;;28.90;97.40;;;;;;5095821;28;20036;-74
2022/08/09 02:18:03;;;;;;;17.30;10.10;;;28.80;97.40;;;;;;5097158;28;20123;-74
2022/08/09 02:20:34;;;;;;;11.70;8.77;;;28.80;97.30;;;;;;5095760;28;20032;-74
2022/08/09 02:23:11;;;;;;;13.70;8.73;;;28.80;97.30;;;;;;5078958;28;20036;-74
2022/08/09 02:25:41;;;;;;;12.38;9.20;;;28.80;97.30;;;;;;5097282;28;20521;-74
2022/08/09 02:28:17;;;;;;;10.32;8.32;;;28.80;97.30;;;;;;5079226;28;20041;-74
2022/08/09 02:30:51;;;;;;;10.82;8.73;;;28.70;97.30;;;;;;5096837;28;20125;-74
2022/08/09 02:33:25;;;;;;;12.15;8.60;;;28.70;97.30;;;;;;5129639;27;20501;-74
2022/08/09 02:36:00;;;;;;;11.43;8.85;;;28.70;97.20;;;;;;5095562;28;20203;-74
2022/08/09 02:38:39;;;;;;;12.10;9.05;;;28.80;97.20;;;;;;5095929;28;20083;-74
2022/08/09 02:41:09;;;;;;;10.98;8.38;;;28.70;97.20;;;;;;5095237;28;20375;-74
2022/08/09 02:43:40;;;;;;;10.50;8.25;;;28.70;97.20;;;;;;5095662;28;20531;-74
2022/08/09 02:46:12;;;;;;;10.80;8.90;;;28.60;97.30;;;;;;5078598;28;20066;-74
2022/08/09 02:48:41;;;;;;;14.93;8.73;;;28.60;97.30;;;;;;5078938;28;20044;-74
2022/08/09 02:51:11;;;;;;;11.75;8.73;;;28.60;97.30;;;;;;5078430;28;20048;-74
2022/08/09 02:53:45;;;;;;;11.85;8.45;;;28.60;97.30;;;;;;5078139;28;20039;-74
2022/08/09 02:56:15;;;;;;;10.75;8.63;;;28.60;97.40;;;;;;5095318;28;20036;-74
2022/08/09 02:58:45;;;;;;;12.55;9.13;;;28.50;97.30;;;;;;5095334;28;20039;-74
2022/08/09 03:01:16;;;;;;;10.73;8.57;;;28.50;97.40;;;;;;5094515;28;20042;-74
2022/08/09 03:03:45;;;;;;;13.75;8.77;;;28.50;97.40;;;;;;5095058;28;20551;-74
2022/08/09 03:06:13;;;;;;;12.35;8.75;;;28.50;97.80;;;;;;5078208;28;20058;-74
2022/08/09 03:08:44;;;;;;;13.32;8.77;;;28.40;97.50;;;;;;5095091;28;20040;-74
2022/08/09 03:11:17;;;;;;;12.05;10.00;;;28.40;97.50;;;;;;5095094;28;20047;-74
2022/08/09 03:13:47;;;;;;;13.80;9.55;;;28.40;97.40;;;;;;5094949;28;20490;-74
2022/08/09 03:16:19;;;;;;;10.32;7.95;;;28.40;97.40;;;;;;5128436;27;20040;-74
2022/08/09 03:18:48;;;;;;;11.63;8.35;;;28.40;97.30;;;;;;5094726;28;20048;-74
2022/08/09 03:21:18;;;;;;;11.38;8.70;;;28.40;97.30;;;;;;5111481;28;20398;-74
2022/08/09 03:23:46;;;;;;;13.93;8.95;;;28.40;97.30;;;;;;5078133;28;20052;-74
2022/08/09 03:26:15;;;;;;;12.30;8.38;;;28.40;97.10;;;;;;5095587;28;20127;-74
2022/08/09 03:28:45;;;;;;;11.68;8.10;;;28.40;97.10;;;;;;5094558;28;20123;-74
2022/08/09 03:31:13;;;;;;;10.85;8.55;;;28.40;97.10;;;;;;5128180;27;20044;-74
2022/08/09 03:33:42;;;;;;;12.70;8.68;;;28.40;97.10;;;;;;5095810;28;20039;-74
2022/08/09 03:36:10;;;;;;;12.50;8.13;;;28.40;97.00;;;;;;5077695;28;20044;-74
2022/08/09 03:38:42;;;;;;;10.30;8.40;;;28.40;97.00;;;;;;5077525;28;20489;-74
2022/08/09 03:41:14;;;;;;;9.23;7.75;;;28.40;96.80;;;;;;5111190;28;20502;-73
2022/08/09 03:43:44;;;;;;;10.88;8.30;;;28.40;96.90;;;;;;5094229;28;20046;-74
2022/08/09 03:46:12;;;;;;;14.85;8.50;;;28.30;96.80;;;;;;5077524;28;20147;-74
2022/08/09 03:48:40;;;;;;;10.32;8.27;;;28.40;96.90;;;;;;5094301;28;20064;-73
2022/08/09 03:51:09;;;;;;;13.65;9.15;;;28.30;96.80;;;;;;5077447;28;20040;-73
2022/08/09 03:53:38;;;;;;;14.95;10.05;;;28.30;96.90;;;;;;5094475;28;20432;-73
2022/08/09 03:56:07;;;;;;;10.48;8.05;;;28.20;96.90;;;;;;5127787;27;20103;-73
2022/08/09 03:58:34;;;;;;;14.07;8.80;;;28.20;97.00;;;;;;5094077;28;20052;-73
2022/08/09 04:01:04;;;;;;;10.60;8.60;;;28.20;97.00;;;;;;5095214;28;20109;-73
2022/08/09 04:03:33;;;;;;;16.65;8.77;;;28.10;97.10;;;;;;5060656;28;20109;-73
2022/08/09 04:06:02;;;;;;;11.95;8.75;;;28.10;97.00;;;;;;5127577;27;20046;-73
2022/08/09 04:08:30;;;;;;;12.77;9.18;;;28.10;97.00;;;;;;5077369;28;20071;-73
2022/08/09 04:10:58;;;;;;;14.32;8.68;;;28.10;97.00;;;;;;5077110;28;20059;-73
2022/08/09 04:13:25;;;;;;;11.07;7.78;;;28.10;97.00;;;;;;5093924;28;20036;-73
2022/08/09 04:15:53;;;;;;;10.52;8.50;;;28.00;96.90;;;;;;5094706;28;20564;-74
2022/08/09 04:18:22;;;;;;;21.50;7.97;;;28.00;97.00;;;;;;5094800;28;20085;-73
2022/08/09 04:20:52;;;;;;;11.35;8.02;;;28.00;97.00;;;;;;5093661;28;20044;-74
2022/08/09 04:23:20;;;;;;;13.23;8.80;;;28.00;97.00;;;;;;5093314;28;20439;-74
2022/08/09 04:25:48;;;;;;;11.45;9.23;;;28.10;97.20;;;;;;5110224;28;20032;-75
2022/08/09 04:28:16;;;;;;;10.55;8.38;;;28.10;96.90;;;;;;5094804;28;20036;-75
2022/08/09 04:30:44;;;;;;;12.00;8.95;;;28.20;96.90;;;;;;5093560;28;20032;-75
2022/08/09 04:33:11;;;;;;;12.38;8.52;;;28.20;96.80;;;;;;5093475;28;20040;-75
2022/08/09 04:35:41;;;;;;;11.68;7.72;;;28.30;96.70;;;;;;5093115;28;20044;-75
2022/08/09 04:38:08;;;;;;;13.73;8.77;;;28.40;96.60;;;;;;5093378;28;20044;-75
2022/08/09 04:40:47;;;;;;;15.30;8.27;;;28.50;96.40;;;;;;5093488;28;20051;-75
2022/08/09 04:43:16;;;;;;;12.13;8.27;;;28.60;96.40;;;;;;5094523;28;20044;-75
2022/08/09 04:45:45;;;;;;;10.80;8.85;;;28.60;96.30;;;;;;5126804;27;20050;-75
2022/08/09 04:48:12;;;;;;;14.63;8.45;;;28.70;96.10;;;;;;5093184;28;20043;-75
2022/08/09 04:50:41;;;;;;;11.35;7.65;;;28.80;96.00;;;;;;5092970;28;20036;-75
2022/08/09 04:53:09;;;;;;;9.73;7.75;;;28.90;96.00;;;;;;5126821;27;20055;-75
2022/08/09 04:55:37;;;;;;;13.63;7.70;;;29.00;95.80;;;;;;5076096;28;20096;-75
2022/08/09 04:58:06;;;;;;;14.00;8.38;;;29.10;95.70;;;;;;5109727;28;20044;-75
2022/08/09 05:00:33;;;;;;;12.00;7.78;;;29.20;95.60;;;;;;5093182;28;20043;-75
2022/08/09 05:03:03;;;;;;;12.05;7.82;;;29.30;95.50;;;;;;5093878;28;20051;-75
2022/08/09 05:05:31;;;;;;;11.90;7.10;;;29.30;95.40;;;;;;5093942;28;20557;-75
2022/08/09 05:07:58;;;;;;;11.77;8.38;;;29.50;95.30;;;;;;5076304;28;20159;-75
2022/08/09 05:10:26;;;;;;;10.38;7.65;;;29.60;95.20;;;;;;5075959;28;20130;-74
2022/08/09 05:12:53;;;;;;;12.00;7.97;;;29.70;95.00;;;;;;5076140;28;20036;-75
2022/08/09 05:15:23;;;;;;;10.93;7.85;;;29.90;94.90;;;;;;5093748;28;20059;-74
2022/08/09 05:17:51;;;;;;;12.18;7.97;;;30.00;94.80;;;;;;5092857;28;20032;-74
2022/08/09 05:20:18;;;;;;;12.55;7.95;;;30.10;94.60;;;;;;5126399;27;20051;-74
2022/08/09 05:22:49;;;;;;;10.75;8.07;;;30.20;94.40;;;;;;5093964;28;20068;-75
2022/08/09 05:25:16;;;;;;;9.63;7.63;;;30.30;94.20;;;;;;5093480;28;20115;-75
2022/08/09 05:27:46;;;;;;;11.52;8.18;;;30.50;94.10;;;;;;5092699;28;20056;-75
2022/08/09 05:30:14;;;;;;;9.00;7.80;;;30.60;93.90;;;;;;5092476;28;20055;-75
2022/08/09 05:32:42;;;;;;;12.50;7.68;;;30.70;93.80;;;;;;5092106;28;20043;-75
2022/08/09 05:35:10;;;;;;;11.90;7.72;;;30.80;93.70;;;;;;5093624;28;20044;-75
2022/08/09 05:37:38;;;;;;;11.32;7.15;;;30.90;93.50;;;;;;5059146;28;20037;-75
2022/08/09 05:40:07;;;;;;;12.48;8.50;;;31.00;93.50;;;;;;5092391;28;20494;-75
2022/08/09 05:42:35;;;;;;;10.50;7.28;;;31.10;93.40;;;;;;5092268;28;20044;-75
2022/08/09 05:45:03;;;;;;;10.32;7.93;;;31.10;93.30;;;;;;5092624;28;20490;-75
2022/08/09 05:47:31;;;;;;;13.13;8.55;;;31.20;93.10;;;;;;5075943;28;20048;-75
2022/08/09 05:49:59;;;;;;;12.68;7.43;;;31.30;93.00;;;;;;5093459;28;20048;-75
2022/08/09 05:52:27;;;;;;;8.98;7.50;;;31.40;93.00;;;;;;5093544;28;20493;-75
2022/08/09 05:54:54;;;;;;;13.13;8.13;;;31.40;93.00;;;;;;5093408;28;20055;-75
2022/08/09 05:57:22;;;;;;;13.23;7.55;;;31.40;93.00;;;;;;5092483;28;20106;-75
2022/08/09 05:59:51;;;;;;;11.80;8.43;;;31.50;93.00;;;;;;5092336;28;20093;-75
2022/08/09 06:02:20;;;;;;;17.80;7.53;;;31.50;93.10;;;;;;5093369;28;20040;-74
2022/08/09 06:04:47;;;;;;;12.02;8.02;;;31.60;93.10;;;;;;5092200;28;20059;-75
2022/08/09 06:07:15;;;;;;;11.07;7.25;;;31.70;93.10;;;;;;5092129;28;20451;-74
2022/08/09 06:09:43;;;;;;;11.48;7.40;;;31.70;93.00;;;;;;5125777;27;20047;-75
2022/08/09 06:12:10;;;;;;;9.38;6.82;;;31.80;93.20;;;;;;5075436;28;20040;-75
2022/08/09 06:14:38;;;;;;;10.23;6.72;;;31.90;93.20;;;;;;5075469;28;20048;-75
2022/08/09 06:17:06;;;;;;;10.05;7.88;;;31.90;93.20;;;;;;5074967;28;20093;-75
2022/08/09 06:19:33;;;;;;;8.68;7.25;;;32.00;93.00;;;;;;5092191;28;20043;-75
2022/08/09 06:22:01;;;;;;;10.80;7.88;;;32.10;92.80;;;;;;5092166;28;20062;-75
2022/08/09 06:24:28;;;;;;;11.00;7.43;;;32.20;92.70;;;;;;5093280;28;20044;-75
2022/08/09 06:26:56;;;;;;;11.65;7.38;;;32.30;92.70;;;;;;5074979;28;20082;-75
2022/08/09 06:29:25;;;;;;;12.35;7.32;;;32.40;92.70;;;;;;5075628;28;20158;-74
2022/08/09 06:31:53;;;;;;;11.20;7.55;;;32.30;92.70;;;;;;5092424;28;20436;-75
2022/08/09 06:34:20;;;;;;;10.57;6.80;;;32.40;92.60;;;;;;5075207;28;20054;-75
2022/08/09 06:36:48;;;;;;;10.32;6.90;;;32.50;92.60;;;;;;5093547;28;20044;-74
2022/08/09 06:39:16;;;;;;;10.20;7.63;;;32.60;92.40;;;;;;5079004;28;20055;-75
2022/08/09 06:41:43;;;;;;;10.75;7.03;;;32.70;92.20;;;;;;5095246;28;20040;-75
2022/08/09 06:44:13;;;;;;;9.77;6.15;;;32.80;92.10;;;;;;5095733;28;20044;-74
2022/08/09 06:46:41;;;;;;;12.25;7.03;;;32.80;91.90;;;;;;5096551;28;20056;-75
2022/08/09 06:49:08;;;;;;;10.88;7.35;;;32.90;91.70;;;;;;5095260;28;20490;-75
2022/08/09 06:51:37;;;;;;;13.75;7.00;;;32.90;91.50;;;;;;5095458;28;20044;-75
2022/08/09 06:54:05;;;;;;;13.00;6.57;;;33.10;91.30;;;;;;5095385;28;20054;-75
2022/08/09 06:56:33;;;;;;;12.60;6.82;;;33.20;90.90;;;;;;5095321;28;20044;-75
2022/08/09 06:59:00;;;;;;;20.70;6.95;;;33.30;90.80;;;;;;5078576;28;20387;-74
2022/08/09 07:01:28;;;;;;;8.95;6.22;;;33.40;90.60;;;;;;5096485;28;20086;-74
2022/08/09 07:03:56;;;;;;;7.90;6.50;;;33.40;90.40;;;;;;5078383;28;20082;-74
2022/08/09 07:06:25;;;;;;;14.65;7.50;;;33.50;90.20;;;;;;5095292;28;20071;-75
2022/08/09 07:08:53;;;;;;;12.50;7.78;;;33.60;90.10;;;;;;5095095;28;20093;-75
2022/08/09 07:11:20;;;;;;;13.18;8.07;;;33.60;89.50;;;;;;5078350;28;20089;-74
2022/08/09 07:13:48;;;;;;;10.43;7.18;;;33.70;89.70;;;;;;5096218;28;20044;-75
2022/08/09 07:16:16;;;;;;;11.20;7.57;;;33.70;89.60;;;;;;5078274;28;20044;-75
2022/08/09 07:18:43;;;;;;;13.35;7.93;;;33.90;89.70;;;;;;5094755;28;20097;-75
2022/08/09 07:21:11;;;;;;;16.52;7.55;;;34.00;89.40;;;;;;5128691;27;20055;-75
2022/08/09 07:23:40;;;;;;;8.60;6.22;;;34.00;88.80;;;;;;5128474;27;20093;-75
2022/08/09 07:26:08;;;;;;;10.65;6.80;;;34.10;88.60;;;;;;5128289;27;20059;-75
2022/08/09 07:28:36;;;;;;;11.25;6.95;;;34.20;88.50;;;;;;5094537;28;20032;-75
2022/08/09 07:31:04;;;;;;;11.50;6.50;;;34.20;88.60;;;;;;5077814;28;20674;-75
2022/08/09 07:33:32;;;;;;;9.63;6.15;;;34.20;87.90;;;;;;5094686;28;20138;-75
2022/08/09 07:36:00;;;;;;;9.60;6.50;;;34.30;87.90;;;;;;5094753;28;20139;-75
2022/08/09 07:38:28;;;;;;;9.75;7.22;;;34.30;87.40;;;;;;5128268;27;20383;-74
2022/08/09 07:40:55;;;;;;;9.23;6.50;;;34.40;87.20;;;;;;5077652;28;20040;-74
2022/08/09 07:43:36;;;;;;;9.15;6.53;;;34.50;86.70;;;;;;5094372;28;20131;-75
2022/08/09 07:46:07;;;;;;;9.00;6.60;;;34.50;86.20;;;;;;5094603;28;20047;-75
2022/08/09 07:48:35;;;;;;;9.05;6.00;;;34.60;85.40;;;;;;5094205;28;20055;-75
2022/08/09 07:51:02;;;;;;;8.18;6.20;;;34.50;85.20;;;;;;5077466;28;20056;-75
2022/08/09 07:53:31;;;;;;;10.27;6.32;;;34.50;85.70;;;;;;5095337;28;20126;-74
2022/08/09 07:55:58;;;;;;;13.98;6.20;;;34.50;85.60;;;;;;5095218;28;20051;-74
2022/08/09 07:58:26;;;;;;;8.30;6.20;;;34.50;85.40;;;;;;5095349;28;20040;-75
2022/08/09 08:00:54;;;;;;;9.07;5.78;;;34.50;84.50;;;;;;5095441;28;20036;-74
2022/08/09 08:03:22;;;;;;;12.93;5.93;;;34.60;83.70;;;;;;5094257;28;20048;-74
2022/08/09 08:05:51;;;;;;;11.95;5.90;;;34.50;82.90;;;;;;5095080;28;20048;-74
2022/08/09 08:08:19;;;;;;;11.55;7.00;;;34.50;83.70;;;;;;5077359;28;20409;-74
2022/08/09 08:10:48;;;;;;;9.80;6.30;;;34.60;83.50;;;;;;5077235;28;20040;-74
2022/08/09 08:13:16;;;;;;;8.60;6.43;;;34.70;83.10;;;;;;5093949;28;20060;-74
2022/08/09 08:15:44;;;;;;;9.15;5.60;;;34.70;82.50;;;;;;5077122;28;20044;-74
2022/08/09 08:18:12;;;;;;;9.77;5.85;;;34.70;83.20;;;;;;5094908;28;20040;-74
2022/08/09 08:20:40;;;;;;;6.53;5.43;;;34.70;82.70;;;;;;5127419;27;20478;-74
2022/08/09 08:23:08;;;;;;;10.63;5.35;;;34.80;82.40;;;;;;5094570;28;20051;-74
2022/08/09 08:25:37;;;;;;;10.50;5.43;;;34.70;82.10;;;;;;5127066;27;20071;-75
2022/08/09 08:28:05;;;;;;;10.38;5.45;;;34.70;81.90;;;;;;5077286;28;20154;-74
2022/08/09 08:30:33;;;;;;;10.05;5.72;;;34.90;81.70;;;;;;5076850;28;20420;-74
2022/08/09 08:33:00;;;;;;;7.97;5.38;;;34.90;82.40;;;;;;5094392;28;20043;-74
2022/08/09 08:35:28;;;;;;;6.90;5.03;;;34.90;81.50;;;;;;5094558;28;20371;-74
2022/08/09 08:37:56;;;;;;;8.68;5.55;;;34.90;81.00;;;;;;5076635;28;20371;-74
2022/08/09 08:40:24;;;;;;;8.05;5.30;;;34.90;81.40;;;;;;5093420;28;20093;-74
2022/08/09 08:42:52;;;;;;;9.70;5.22;;;34.90;81.20;;;;;;5126810;27;20088;-74
2022/08/09 08:45:30;;;;;;;7.47;5.07;;;35.00;81.20;;;;;;5109768;28;20052;-74
2022/08/09 08:47:58;;;;;;;7.78;4.72;;;35.00;79.20;;;;;;5093347;28;20494;-74
2022/08/09 08:50:27;;;;;;;7.00;4.75;;;35.00;79.40;;;;;;5076626;28;20052;-74
2022/08/09 08:52:55;;;;;;;6.82;4.95;;;35.10;78.70;;;;;;5076498;28;20050;-75
2022/08/09 08:55:27;;;;;;;7.53;4.80;;;35.00;78.20;;;;;;5076623;28;20040;-74
2022/08/09 08:57:55;;;;;;;9.75;5.50;;;34.90;78.00;;;;;;5109303;28;20087;-74
2022/08/09 09:00:26;;;;;;;7.72;4.50;;;35.00;78.60;;;;;;5092147;28;20044;-74
2022/08/09 09:02:58;;;;;;;7.63;5.22;;;35.00;78.80;;;;;;5094343;28;20177;-74
2022/08/09 09:05:30;;;;;;;15.02;4.68;;;35.00;78.80;;;;;;5093356;28;20040;-74
2022/08/09 09:07:59;;;;;;;9.07;5.20;;;35.00;78.30;;;;;;5093988;28;20040;-74
2022/08/09 09:10:29;;;;;;;11.00;5.35;;;35.00;77.50;;;;;;5092957;28;20398;-75
2022/08/09 09:12:57;;;;;;;9.50;5.95;;;35.10;77.10;;;;;;5092597;28;20044;-75
2022/08/09 09:15:25;;;;;;;9.88;5.30;;;35.10;77.90;;;;;;5094068;28;20044;-75
2022/08/09 09:17:53;;;;;;;9.23;4.75;;;35.10;78.70;;;;;;5093622;28;20490;-74
2022/08/09 09:20:20;;;;;;;9.38;6.18;;;35.00;79.70;;;;;;5059472;28;20047;-75
2022/08/09 09:22:58;;;;;;;8.07;5.15;;;35.00;79.30;;;;;;5092518;28;20118;-75
2022/08/09 09:25:42;;;;;;;7.95;4.88;;;34.90;78.70;;;;;;5126285;27;20047;-74
2022/08/09 09:28:13;;;;;;;9.80;5.38;;;34.90;78.50;;;;;;5092778;28;20047;-75
2022/08/09 09:30:54;;;;;;;11.25;7.28;;;34.90;78.30;;;;;;5059237;28;20044;-75
2022/08/09 09:33:32;;;;;;;13.30;6.25;;;34.90;77.00;;;;;;5092737;28;20077;-75
2022/08/09 09:36:01;;;;;;;11.65;6.82;;;35.00;77.20;;;;;;5075724;28;20056;-74
2022/08/09 09:38:55;;;;;;;10.50;7.28;;;35.00;77.00;;;;;;5092565;28;20055;-74
2022/08/09 09:41:26;;;;;;;9.43;5.78;;;35.00;77.60;;;;;;5092673;28;20048;-75
2022/08/09 09:43:58;;;;;;;14.55;6.07;;;35.00;78.30;;;;;;5092263;28;20097;-75
2022/08/09 09:46:33;;;;;;;12.07;6.90;;;35.00;78.10;;;;;;5092353;28;20044;-75
2022/08/09 09:49:19;;;;;;;22.70;9.63;;;35.10;78.20;;;;;;5092888;28;20444;-75
2022/08/09 09:51:47;;;;;;;15.55;8.43;;;35.10;78.40;;;;;;5093690;28;20072;-75
2022/08/09 09:54:18;;;;;;;11.65;6.57;;;35.10;78.70;;;;;;5092313;28;20051;-74
2022/08/09 09:56:47;;;;;;;11.80;5.53;;;35.00;78.30;;;;;;5075555;28;20432;-75
2022/08/09 09:59:23;;;;;;;9.00;6.22;;;35.00;76.60;;;;;;5109398;28;20043;-75
2022/08/09 10:02:00;;;;;;;7.47;5.95;;;35.00;76.80;;;;;;5092446;28;20468;-74
2022/08/09 10:04:28;;;;;;;7.85;5.22;;;34.90;78.20;;;;;;5058970;28;20048;-74
2022/08/09 10:06:58;;;;;;;8.18;5.10;;;34.80;78.40;;;;;;5092247;28;20044;-74
2022/08/09 10:09:26;;;;;;;10.75;5.70;;;34.70;78.70;;;;;;5093257;28;20076;-75
2022/08/09 10:11:59;;;;;;;7.60;5.60;;;34.80;78.90;;;;;;5063103;28;20435;-75
2022/08/09 10:14:29;;;;;;;7.47;5.85;;;35.00;78.80;;;;;;5096160;28;20040;-75
2022/08/09 10:16:58;;;;;;;10.30;5.57;;;34.90;78.40;;;;;;5129842;27;20093;-75
2022/08/09 10:19:37;;;;;;;9.57;5.40;;;34.80;78.60;;;;;;5079478;28;20035;-74
2022/08/09 10:22:05;;;;;;;7.38;4.97;;;34.70;78.00;;;;;;5112956;28;20050;-74
2022/08/09 10:24:33;;;;;;;10.85;5.70;;;34.60;78.20;;;;;;5079297;28;20052;-74
2022/08/09 10:27:01;;;;;;;8.23;5.30;;;34.60;78.80;;;;;;5095610;28;20079;-74
2022/08/09 10:29:32;;;;;;;8.80;4.75;;;34.60;78.40;;;;;;5096925;28;20050;-74
2022/08/09 10:32:05;;;;;;;7.03;5.80;;;34.50;78.20;;;;;;5128213;27;20044;-75
2022/08/09 10:34:55;;;;;;;9.32;5.70;;;34.40;78.30;;;;;;5081970;28;20478;-74
2022/08/09 10:37:23;;;;;;;7.90;5.70;;;34.50;78.30;;;;;;5095858;28;20097;-73
2022/08/09 10:39:54;;;;;;;10.38;5.47;;;34.40;78.20;;;;;;5129411;27;20036;-74
2022/08/09 10:42:22;;;;;;;8.50;5.57;;;34.40;78.70;;;;;;5112468;28;20040;-74
2022/08/09 10:45:05;;;;;;;9.18;6.20;;;34.50;78.50;;;;;;5095659;28;20040;-75
2022/08/09 10:47:38;;;;;;;7.88;5.13;;;34.60;78.40;;;;;;5095603;28;20509;-75
2022/08/09 10:53:54;;;;;;;10.30;5.18;;;34.60;78.50;;;;;;5064119;28;20178;-74
2022/08/09 10:56:28;;;;;;;8.85;4.68;;;34.70;78.40;;;;;;5076207;28;20040;-74
2022/08/09 10:58:57;;;;;;;11.45;5.25;;;34.80;77.30;;;;;;5058375;28;20045;-75
2022/08/09 11:01:38;;;;;;;10.95;5.15;;;34.80;77.80;;;;;;5090932;28;20052;-75
2022/08/09 11:04:08;;;;;;;9.20;3.92;;;34.80;77.80;;;;;;5091946;28;20048;-75
2022/08/09 11:06:37;;;;;;;6.72;4.57;;;34.90;76.90;;;;;;5108570;28;20047;-74
2022/08/09 11:09:06;;;;;;;10.80;5.70;;;34.70;76.70;;;;;;5074324;28;20048;-75
2022/08/09 11:12:10;;;;;;;5.35;3.70;;;34.70;76.70;;;;;;5073869;28;20072;-75
2022/08/09 11:14:53;;;;;;;7.15;4.32;;;34.60;75.90;;;;;;5066428;28;20048;-75
2022/08/09 11:17:21;;;;;;;8.23;4.72;;;34.40;76.40;;;;;;5090257;28;20075;-75
2022/08/09 11:20:07;;;;;;;6.13;4.30;;;34.40;77.50;;;;;;5073687;28;20135;-75
2022/08/09 11:22:44;;;;;;;7.80;4.80;;;34.30;77.80;;;;;;5073175;28;20475;-74
2022/08/09 11:25:34;;;;;;;6.00;4.80;;;34.40;77.10;;;;;;5090937;28;20045;-74
2022/08/09 11:28:25;;;;;;;8.25;4.32;;;34.30;77.20;;;;;;5107888;28;20044;-75
2022/08/09 11:30:53;;;;;;;8.15;4.88;;;34.40;77.90;;;;;;5075623;28;20048;-75
2022/08/09 11:33:23;;;;;;;7.22;4.45;;;34.50;78.10;;;;;;5075524;28;20663;-75
2022/08/09 11:35:56;;;;;;;11.45;5.43;;;34.50;77.60;;;;;;5108110;28;20390;-75
2022/08/09 11:38:28;;;;;;;11.40;5.00;;;34.60;76.90;;;;;;5108429;28;20056;-75
2022/08/09 11:40:56;;;;;;;7.63;4.93;;;34.60;76.70;;;;;;5057405;28;20375;-75
2022/08/09 11:43:27;;;;;;;5.30;3.92;;;34.70;77.10;;;;;;5107763;28;20041;-75
2022/08/09 11:45:56;;;;;;;7.50;4.20;;;34.70;77.50;;;;;;5107817;28;20438;-75
2022/08/09 11:48:28;;;;;;;10.15;5.40;;;34.70;77.20;;;;;;5073904;28;20132;-76
2022/08/09 11:50:55;;;;;;;8.05;4.88;;;34.80;77.30;;;;;;5071849;28;20044;-75
2022/08/09 11:53:34;;;;;;;6.95;5.07;;;34.80;77.40;;;;;;5107132;28;20055;-75
2022/08/09 11:56:14;;;;;;;9.10;4.80;;;34.70;77.40;;;;;;5074185;28;20041;-75
2022/08/09 11:58:45;;;;;;;8.10;5.15;;;34.80;77.10;;;;;;5069097;28;20060;-75
2022/08/09 12:01:15;;;;;;;7.65;4.68;;;34.70;77.10;;;;;;5076481;28;20444;-75
2022/08/09 12:03:44;;;;;;;6.65;4.75;;;34.50;77.00;;;;;;5038987;28;20041;-76
2022/08/09 12:06:25;;;;;;;6.80;4.70;;;34.40;77.90;;;;;;5061623;28;20044;-75
2022/08/09 12:08:55;;;;;;;6.15;4.57;;;34.30;78.00;;;;;;5067803;28;20106;-75
2022/08/09 12:11:26;;;;;;;7.00;4.82;;;34.30;78.30;;;;;;5086784;28;20032;-75
2022/08/09 12:13:56;;;;;;;8.30;3.83;;;34.20;78.20;;;;;;5086151;28;20048;-75
2022/08/09 12:16:28;;;;;;;10.68;5.63;;;34.10;77.50;;;;;;5070761;28;20067;-75
2022/08/09 12:18:57;;;;;;;7.65;5.47;;;34.20;77.50;;;;;;5067866;28;20052;-76
2022/08/09 12:21:38;;;;;;;9.32;4.90;;;34.20;77.00;;;;;;5084353;28;20078;-75
2022/08/09 12:24:08;;;;;;;6.20;4.15;;;34.20;77.40;;;;;;5068736;28;20052;-75
2022/08/09 12:26:50;;;;;;;4.97;3.90;;;34.20;77.50;;;;;;5066041;28;20119;-75
2022/08/09 12:29:21;;;;;;;7.90;4.47;;;34.10;76.70;;;;;;5072457;28;20078;-75
2022/08/09 12:31:49;;;;;;;7.35;4.85;;;34.10;77.20;;;;;;5089636;28;20161;-75
2022/08/09 12:34:38;;;;;;;8.43;4.70;;;34.10;77.40;;;;;;5052466;28;20075;-75
2022/08/09 12:37:07;;;;;;;7.43;4.50;;;34.00;77.10;;;;;;5054323;28;20045;-75
2022/08/09 12:39:35;;;;;;;6.57;4.28;;;34.00;76.80;;;;;;5054002;28;20045;-76
2022/08/09 12:42:11;;;;;;;5.47;3.88;;;34.00;76.70;;;;;;5055116;28;20060;-75
2022/08/09 12:44:41;;;;;;;8.20;5.90;;;34.00;77.00;;;;;;5056718;28;20064;-75
2022/08/09 12:47:10;;;;;;;8.70;4.40;;;34.00;76.60;;;;;;5089403;28;20123;-74
2022/08/09 12:49:38;;;;;;;8.35;4.47;;;33.90;76.40;;;;;;5072460;28;20094;-75
2022/08/09 12:52:08;;;;;;;5.90;4.60;;;33.90;77.00;;;;;;5072113;28;20426;-75
2022/08/09 12:54:54;;;;;;;7.55;4.55;;;33.90;77.40;;;;;;5056263;28;20041;-75
2022/08/09 12:57:38;;;;;;;9.90;4.93;;;33.90;77.40;;;;;;5073851;28;20080;-75
2022/08/09 13:00:21;;;;;;;8.60;4.78;;;33.90;77.30;;;;;;5073733;28;20049;-75
2022/08/09 13:02:54;;;;;;;5.80;5.00;;;33.90;77.50;;;;;;5072809;28;20050;-75